createdAt,value
2022-08-22T00:00:57.781Z,60.60
2022-08-22T00:02:54.722Z,58.30
2022-08-22T00:03:45.456Z,60.00
2022-08-22T00:06:25.920Z,60.00
2022-08-22T00:09:18.618Z,60.10
2022-08-22T00:11:57.432Z,59.90
2022-08-22T00:14:34.938Z,60.00
2022-08-22T00:17:20.756Z,60.10
2022-08-22T00:20:30.343Z,60.20
2022-08-22T00:23:02.479Z,60.20
2022-08-22T00:25:33.555Z,60.20
2022-08-22T00:28:16.347Z,60.10
2022-08-22T00:30:54.827Z,60.10
2022-08-22T00:33:37.587Z,60.20
2022-08-22T00:36:25.466Z,60.20
2022-08-22T00:39:04.339Z,60.30
2022-08-22T00:42:09.981Z,60.40
2022-08-22T00:44:57.685Z,60.40
2022-08-22T00:47:39.048Z,60.30
2022-08-22T00:50:31.923Z,60.60
2022-08-22T00:53:38.154Z,60.50
2022-08-22T00:56:26.004Z,60.60
2022-08-22T00:58:55.367Z,60.60
2022-08-22T01:01:36.115Z,60.60
2022-08-22T01:04:43.981Z,60.70
2022-08-22T01:07:35.352Z,60.60
2022-08-22T01:10:23.854Z,60.70
2022-08-22T01:13:20.399Z,60.60
2022-08-22T01:15:50.068Z,60.90
2022-08-22T01:18:46.310Z,60.80
2022-08-22T01:21:52.512Z,60.90
2022-08-22T01:25:08.905Z,60.90
2022-08-22T01:27:53.822Z,60.80
2022-08-22T01:30:49.403Z,61.00
2022-08-22T01:33:34.556Z,61.10
2022-08-22T01:36:30.338Z,61.20
2022-08-22T01:39:35.608Z,61.10
2022-08-22T01:42:02.465Z,61.10
2022-08-22T01:44:44.206Z,61.20
2022-08-22T01:47:39.224Z,61.30
2022-08-22T01:50:35.869Z,61.30
2022-08-22T01:53:14.363Z,61.30
2022-08-22T01:55:59.822Z,61.30
2022-08-22T01:58:33.168Z,61.40
2022-08-22T02:01:11.553Z,61.40
2022-08-22T02:04:15.165Z,61.50
2022-08-22T02:06:52.407Z,61.50
2022-08-22T02:09:50.893Z,61.50
2022-08-22T02:12:30.104Z,61.50
2022-08-22T02:15:15.487Z,61.50
2022-08-22T02:18:06.323Z,61.50
2022-08-22T02:20:51.167Z,61.50
2022-08-22T02:23:43.612Z,61.50
2022-08-22T02:26:14.169Z,61.50
2022-08-22T02:28:58.063Z,61.30
2022-08-22T02:31:41.317Z,61.40
2022-08-22T02:34:40.109Z,61.40
2022-08-22T02:37:16.730Z,61.50
2022-08-22T02:39:51.808Z,61.60
2022-08-22T02:42:34.296Z,61.70
2022-08-22T02:45:15.896Z,61.80
2022-08-22T02:48:09.264Z,61.70
2022-08-22T02:50:47.724Z,61.60
2022-08-22T02:53:38.826Z,61.80
2022-08-22T02:56:18.704Z,61.80
2022-08-22T02:59:13.718Z,61.80
2022-08-22T03:01:43.880Z,61.80
2022-08-22T03:04:45.478Z,61.80
2022-08-22T03:07:29.191Z,62.00
2022-08-22T03:10:18.087Z,62.10
2022-08-22T03:13:02.486Z,62.00
2022-08-22T03:15:49.255Z,62.10
2022-08-22T03:18:20.144Z,62.10
2022-08-22T03:20:59.043Z,62.10
2022-08-22T03:23:40.551Z,62.10
2022-08-22T03:26:22.495Z,62.10
2022-08-22T03:29:01.187Z,62.10
2022-08-22T03:31:30.472Z,62.10
2022-08-22T03:34:22.518Z,62.10
2022-08-22T03:37:15.229Z,62.20
2022-08-22T03:39:50.608Z,62.30
2022-08-22T03:42:35.814Z,62.10
2022-08-22T03:45:14.481Z,62.10
2022-08-22T03:48:05.056Z,62.20
2022-08-22T03:51:03.692Z,62.40
2022-08-22T03:53:42.336Z,62.30
2022-08-22T03:56:44.688Z,62.40
2022-08-22T03:59:36.547Z,62.40
2022-08-22T04:02:54.733Z,62.40
2022-08-22T04:05:58.141Z,62.50
2022-08-22T04:08:52.279Z,62.50
2022-08-22T04:11:42.866Z,62.50
2022-08-22T04:14:35.631Z,62.50
2022-08-22T04:17:27.307Z,62.50
2022-08-22T04:20:20.791Z,62.60
2022-08-22T04:23:02.673Z,62.60
2022-08-22T04:25:52.165Z,62.60
2022-08-22T04:28:39.660Z,62.60
2022-08-22T04:31:12.819Z,62.70
2022-08-22T04:34:01.129Z,62.70
2022-08-22T04:36:33.203Z,62.60
2022-08-22T04:39:02.307Z,62.70
2022-08-22T04:42:31.622Z,62.50
2022-08-22T04:45:03.534Z,62.50
2022-08-22T04:48:08.978Z,62.50
2022-08-22T04:51:04.504Z,62.70
2022-08-22T04:54:00.394Z,62.80
2022-08-22T04:56:52.599Z,62.80
2022-08-22T04:59:19.585Z,62.80
2022-08-22T05:01:55.236Z,62.80
2022-08-22T05:04:29.343Z,62.90
2022-08-22T05:07:04.457Z,62.90
2022-08-22T05:09:34.216Z,63.00
2022-08-22T05:12:09.117Z,63.00
2022-08-22T05:14:49.084Z,63.00
2022-08-22T05:17:21.256Z,63.00
2022-08-22T05:19:50.551Z,63.00
2022-08-22T05:22:23.982Z,62.90
2022-08-22T05:24:57.081Z,62.90
2022-08-22T05:27:28.548Z,63.00
2022-08-22T05:30:11.695Z,63.10
2022-08-22T05:33:03.832Z,63.20
2022-08-22T05:35:40.680Z,63.20
2022-08-22T05:38:12.374Z,63.20
2022-08-22T05:40:40.770Z,63.20
2022-08-22T05:43:11.357Z,63.10
2022-08-22T05:45:43.584Z,63.20
2022-08-22T05:48:24.926Z,63.20
2022-08-22T05:50:59.335Z,63.30
2022-08-22T05:53:35.806Z,63.30
2022-08-22T05:56:07.964Z,63.40
2022-08-22T05:58:44.073Z,63.30
2022-08-22T06:01:38.173Z,63.10
2022-08-22T06:04:17.447Z,63.20
2022-08-22T06:07:13.596Z,63.10
2022-08-22T06:09:46.627Z,63.20
2022-08-22T06:12:22.298Z,63.20
2022-08-22T06:14:57.569Z,63.30
2022-08-22T06:17:35.986Z,63.30
2022-08-22T06:20:05.638Z,63.30
2022-08-22T06:22:43.572Z,63.30
2022-08-22T06:25:41.446Z,63.30
2022-08-22T06:28:11.409Z,63.30
2022-08-22T06:30:42.237Z,63.30
2022-08-22T06:33:15.919Z,63.10
2022-08-22T06:36:06.486Z,63.20
2022-08-22T06:38:52.837Z,63.10
2022-08-22T06:41:22.527Z,63.20
2022-08-22T06:43:52.667Z,63.70
2022-08-22T06:46:22.200Z,63.10
2022-08-22T06:48:49.218Z,63.00
2022-08-22T06:51:20.331Z,62.90
2022-08-22T06:53:54.724Z,63.00
2022-08-22T06:56:25.502Z,62.90
2022-08-22T06:59:00.809Z,62.90
2022-08-22T07:01:37.511Z,62.80
2022-08-22T07:04:14.257Z,62.80
2022-08-22T07:06:45.934Z,62.70
2022-08-22T07:09:31.169Z,62.60
2022-08-22T07:12:01.634Z,62.60
2022-08-22T07:14:39.171Z,62.60
2022-08-22T07:17:09.267Z,62.50
2022-08-22T07:19:46.201Z,62.60
2022-08-22T07:22:17.029Z,62.60
2022-08-22T07:24:48.255Z,62.50
2022-08-22T07:27:38.903Z,62.60
2022-08-22T07:30:17.878Z,62.40
2022-08-22T07:33:25.150Z,62.30
2022-08-22T07:36:05.876Z,61.90
2022-08-22T07:38:42.898Z,61.80
2022-08-22T07:41:20.633Z,61.60
2022-08-22T07:44:01.097Z,61.60
2022-08-22T07:46:41.178Z,61.40
2022-08-22T07:49:10.605Z,61.30
2022-08-22T07:51:46.496Z,61.20
2022-08-22T07:54:27.130Z,61.00
2022-08-22T07:56:59.995Z,60.70
2022-08-22T07:59:28.515Z,60.50
2022-08-22T08:01:59.821Z,60.40
2022-08-22T08:04:36.884Z,60.40
2022-08-22T08:07:08.495Z,60.10
2022-08-22T08:09:41.287Z,60.00
2022-08-22T08:12:12.260Z,59.80
2022-08-22T08:14:42.496Z,59.60
2022-08-22T08:17:34.294Z,59.40
2022-08-22T08:20:08.634Z,59.20
2022-08-22T08:22:38.387Z,59.00
2022-08-22T08:25:07.473Z,58.80
2022-08-22T08:27:56.725Z,58.40
2022-08-22T08:30:40.196Z,58.10
2022-08-22T08:33:24.250Z,58.00
2022-08-22T08:36:09.997Z,57.80
2022-08-22T08:38:47.810Z,57.50
2022-08-22T08:41:22.110Z,57.30
2022-08-22T08:44:04.347Z,57.00
2022-08-22T08:46:57.332Z,56.60
2022-08-22T08:49:42.113Z,56.40
2022-08-22T08:52:34.435Z,56.50
2022-08-22T08:58:11.093Z,56.00
2022-08-22T09:00:42.792Z,55.80
2022-08-22T09:03:56.158Z,55.60
2022-08-22T09:09:58.202Z,55.30
2022-08-22T09:12:56.272Z,55.30
2022-08-22T09:16:04.932Z,55.00
2022-08-22T09:18:53.226Z,54.50
2022-08-22T09:21:31.532Z,54.40
2022-08-22T09:24:30.720Z,54.10
2022-08-22T09:27:06.604Z,53.90
2022-08-22T09:30:11.558Z,53.90
2022-08-22T09:32:54.606Z,53.20
2022-08-22T09:35:34.389Z,53.30
2022-08-22T09:38:28.234Z,52.90
2022-08-22T09:41:13.214Z,51.90
2022-08-22T09:43:57.658Z,51.70
2022-08-22T09:46:37.687Z,51.90
2022-08-22T09:49:23.726Z,51.40
2022-08-22T09:52:33.119Z,50.40
2022-08-22T09:55:08.099Z,49.80
2022-08-22T09:57:54.026Z,50.00
2022-08-22T10:00:27.726Z,48.70
2022-08-22T10:03:19.536Z,48.90
2022-08-22T10:05:57.562Z,47.90
2022-08-22T10:08:49.462Z,47.40
2022-08-22T10:11:32.334Z,46.30
2022-08-22T10:14:22.996Z,45.80
2022-08-22T10:17:10.365Z,45.70
2022-08-22T10:19:52.839Z,45.60
2022-08-22T10:22:30.261Z,45.40
2022-08-22T10:25:22.729Z,45.20
2022-08-22T10:28:10.428Z,44.10
2022-08-22T10:31:10.969Z,44.50
2022-08-22T10:34:05.938Z,43.30
2022-08-22T10:37:14.511Z,43.10
2022-08-22T10:40:05.501Z,43.00
2022-08-22T10:42:46.714Z,42.20
2022-08-22T10:45:24.040Z,41.80
2022-08-22T10:48:08.793Z,41.40
2022-08-22T10:50:48.623Z,41.00
2022-08-22T10:53:58.885Z,40.60
2022-08-22T10:56:51.002Z,39.60
2022-08-22T10:59:51.008Z,39.30
2022-08-22T11:02:55.216Z,38.40
2022-08-22T11:05:44.878Z,37.80
2022-08-22T11:08:37.208Z,37.50
2022-08-22T11:11:32.945Z,38.10
2022-08-22T11:14:18.844Z,36.80
2022-08-22T11:17:02.795Z,36.00
2022-08-22T11:20:19.473Z,36.90
2022-08-22T11:23:08.227Z,36.90
2022-08-22T11:26:04.866Z,36.10
2022-08-22T11:29:14.114Z,36.00
2022-08-22T11:31:55.232Z,35.30
2022-08-22T11:35:00.702Z,35.50
2022-08-22T11:37:45.638Z,34.30
2022-08-22T11:40:22.826Z,34.50
2022-08-22T11:43:41.427Z,33.90
2022-08-22T11:46:32.176Z,34.00
2022-08-22T11:49:16.967Z,33.90
2022-08-22T11:52:03.829Z,33.90
2022-08-22T11:54:42.264Z,33.90
2022-08-22T11:57:20.445Z,33.80
2022-08-22T12:00:06.402Z,33.70
2022-08-22T12:03:01.579Z,33.60
2022-08-22T12:05:45.586Z,34.00
2022-08-22T12:08:25.914Z,33.30
2022-08-22T12:11:09.852Z,33.70
2022-08-22T12:13:50.440Z,33.50
2022-08-22T12:16:29.625Z,34.20
2022-08-22T12:19:27.292Z,34.70
2022-08-22T12:22:34.673Z,35.00
2022-08-22T12:25:10.333Z,34.90
2022-08-22T12:27:36.880Z,35.20
2022-08-22T12:30:24.536Z,34.40
2022-08-22T12:33:23.311Z,33.00
2022-08-22T12:36:00.149Z,32.50
2022-08-22T12:38:50.839Z,32.20
2022-08-22T12:41:35.165Z,31.70
2022-08-22T12:44:16.415Z,31.50
2022-08-22T12:47:05.318Z,31.10
2022-08-22T12:50:06.012Z,31.50
2022-08-22T12:52:38.464Z,31.80
2022-08-22T12:55:21.432Z,32.40
2022-08-22T12:58:18.323Z,32.50
2022-08-22T13:00:48.044Z,32.70
2022-08-22T13:03:44.218Z,32.80
2022-08-22T13:06:35.764Z,31.80
2022-08-22T13:09:28.650Z,31.30
2022-08-22T13:12:02.422Z,32.20
2022-08-22T13:14:33.906Z,31.90
2022-08-22T13:17:15.191Z,32.30
2022-08-22T13:20:06.007Z,32.60
2022-08-22T13:22:38.888Z,32.00
2022-08-22T13:25:38.260Z,31.20
2022-08-22T13:28:11.901Z,31.20
2022-08-22T13:30:41.162Z,31.30
2022-08-22T13:33:21.792Z,30.70
2022-08-22T13:35:53.886Z,29.60
2022-08-22T13:38:39.925Z,29.50
2022-08-22T13:41:18.751Z,29.20
2022-08-22T13:44:06.624Z,29.00
2022-08-22T13:46:35.712Z,29.00
2022-08-22T13:49:07.164Z,28.70
2022-08-22T13:51:53.106Z,28.40
2022-08-22T13:54:46.526Z,28.80
2022-08-22T13:57:31.671Z,28.70
2022-08-22T14:00:28.618Z,28.30
2022-08-22T14:03:01.385Z,27.60
2022-08-22T14:05:33.936Z,27.60
2022-08-22T14:08:12.698Z,27.40
2022-08-22T14:10:55.085Z,27.20
2022-08-22T14:13:40.300Z,26.80
2022-08-22T14:16:13.357Z,26.90
2022-08-22T14:18:49.164Z,26.30
2022-08-22T14:21:25.011Z,26.70
2022-08-22T14:23:55.160Z,26.20
2022-08-22T14:26:47.363Z,26.20
2022-08-22T14:29:18.693Z,25.70
2022-08-22T14:31:55.626Z,25.70
2022-08-22T14:34:23.154Z,25.40
2022-08-22T14:37:21.247Z,25.00
2022-08-22T14:39:56.018Z,25.60
2022-08-22T14:42:27.005Z,25.30
2022-08-22T14:45:13.239Z,25.20
2022-08-22T14:47:54.961Z,25.10
2022-08-22T14:51:03.864Z,25.00
2022-08-22T14:53:34.047Z,25.00
2022-08-22T14:56:07.721Z,24.80
2022-08-22T14:58:57.934Z,25.00
2022-08-22T15:01:29.817Z,24.50
2022-08-22T15:04:18.887Z,24.60
2022-08-22T15:06:58.558Z,24.60
2022-08-22T15:09:50.883Z,24.40
2022-08-22T15:12:31.384Z,24.30
2022-08-22T15:15:26.390Z,24.40
2022-08-22T15:17:53.506Z,24.90
2022-08-22T15:20:36.290Z,24.50
2022-08-22T15:23:23.266Z,24.00
2022-08-22T15:26:01.231Z,24.30
2022-08-22T15:28:53.043Z,24.20
2022-08-22T15:31:20.524Z,24.00
2022-08-22T15:33:51.422Z,24.00
2022-08-22T15:36:25.597Z,23.60
2022-08-22T15:39:15.248Z,23.60
2022-08-22T15:41:48.398Z,23.50
2022-08-22T15:44:32.135Z,23.70
2022-08-22T15:47:09.053Z,23.60
2022-08-22T15:49:50.805Z,23.60
2022-08-22T15:53:06.825Z,23.50
2022-08-22T15:55:35.351Z,23.10
2022-08-22T15:58:22.499Z,23.10
2022-08-22T16:01:20.030Z,23.30
2022-08-22T16:04:04.826Z,23.40
2022-08-22T16:06:51.287Z,23.70
2022-08-22T16:09:39.015Z,23.70
2022-08-22T16:12:10.262Z,23.60
2022-08-22T16:14:36.868Z,23.60
2022-08-22T16:17:26.426Z,23.10
2022-08-22T16:20:09.899Z,22.90
2022-08-22T16:22:56.515Z,23.20
2022-08-22T16:25:44.706Z,22.90
2022-08-22T16:28:47.770Z,23.10
2022-08-22T16:31:29.689Z,22.90
2022-08-22T16:34:18.588Z,23.10
2022-08-22T16:37:03.365Z,23.30
2022-08-22T16:39:36.223Z,24.10
2022-08-22T16:42:22.377Z,24.40
2022-08-22T16:45:05.484Z,24.30
2022-08-22T16:47:56.413Z,24.90
2022-08-22T16:50:37.167Z,25.10
2022-08-22T16:53:11.500Z,25.90
2022-08-22T16:55:45.042Z,25.90
2022-08-22T16:58:57.910Z,25.50
2022-08-22T17:01:33.314Z,25.10
2022-08-22T17:04:14.523Z,25.20
2022-08-22T17:07:13.144Z,25.00
2022-08-22T17:10:12.341Z,25.00
2022-08-22T17:12:54.195Z,25.30
2022-08-22T17:15:23.588Z,25.20
2022-08-22T17:18:25.584Z,25.40
2022-08-22T17:21:15.530Z,25.30
2022-08-22T17:24:03.471Z,25.50
2022-08-22T17:26:41.913Z,25.50
2022-08-22T17:29:26.807Z,25.70
2022-08-22T17:31:55.113Z,26.10
2022-08-22T17:34:24.508Z,26.40
2022-08-22T17:37:06.454Z,27.00
2022-08-22T17:39:55.959Z,27.80
2022-08-22T17:42:46.375Z,28.40
2022-08-22T17:45:28.191Z,28.90
2022-08-22T17:48:06.703Z,29.60
2022-08-22T17:50:54.937Z,30.00
2022-08-22T17:53:45.960Z,30.30
2022-08-22T17:56:26.547Z,30.70
2022-08-22T17:59:12.647Z,31.30
2022-08-22T18:01:50.427Z,32.10
2022-08-22T18:04:29.171Z,32.60
2022-08-22T18:07:18.496Z,33.00
2022-08-22T18:09:55.234Z,33.40
2022-08-22T18:12:34.682Z,32.60
2022-08-22T18:15:29.772Z,32.90
2022-08-22T18:17:56.664Z,33.20
2022-08-22T18:20:37.612Z,33.40
2022-08-22T18:23:38.992Z,33.60
2022-08-22T18:26:14.628Z,33.60
2022-08-22T18:28:55.915Z,33.80
2022-08-22T18:31:39.202Z,34.20
2022-08-22T18:34:18.524Z,34.60
2022-08-22T18:36:58.422Z,34.70
2022-08-22T18:39:46.673Z,35.10
2022-08-22T18:42:54.592Z,35.50
2022-08-22T18:45:45.962Z,35.80
2022-08-22T18:48:31.775Z,36.30
2022-08-22T18:51:38.710Z,36.70
2022-08-22T18:54:05.530Z,37.20
2022-08-22T18:56:40.431Z,37.30
2022-08-22T18:59:18.799Z,37.70
2022-08-22T19:01:52.508Z,38.50
2022-08-22T19:04:42.864Z,38.70
2022-08-22T19:07:30.679Z,39.30
2022-08-22T19:10:35.900Z,39.60
2022-08-22T19:13:11.346Z,39.80
2022-08-22T19:16:11.187Z,40.00
2022-08-22T19:18:40.472Z,40.20
2022-08-22T19:21:53.067Z,40.20
2022-08-22T19:24:19.626Z,40.70
2022-08-22T19:27:18.282Z,40.70
2022-08-22T19:29:45.016Z,41.20
2022-08-22T19:32:46.687Z,41.30
2022-08-22T19:35:23.975Z,42.10
2022-08-22T19:38:02.559Z,42.20
2022-08-22T19:40:53.195Z,42.60
2022-08-22T19:43:42.055Z,42.90
2022-08-22T19:46:11.874Z,43.20
2022-08-22T19:48:48.777Z,43.30
2022-08-22T19:51:21.539Z,43.70
2022-08-22T19:54:20.301Z,43.90
2022-08-22T19:56:56.364Z,44.30
2022-08-22T19:59:50.737Z,44.30
2022-08-22T20:02:35.187Z,44.50
2022-08-22T20:05:29.964Z,44.70
2022-08-22T20:08:08.936Z,45.00
2022-08-22T20:11:02.977Z,45.10
2022-08-22T20:13:35.303Z,45.40
2022-08-22T20:16:23.287Z,45.40
2022-08-22T20:19:07.797Z,45.80
2022-08-22T20:21:50.026Z,45.70
2022-08-22T20:24:25.060Z,46.40
2022-08-22T20:27:13.483Z,46.70
2022-08-22T20:29:49.062Z,46.80
2022-08-22T20:32:19.370Z,46.90
2022-08-22T20:34:47.374Z,47.20
2022-08-22T20:37:32.344Z,47.40
2022-08-22T20:40:08.311Z,47.60
2022-08-22T20:42:55.371Z,48.00
2022-08-22T20:45:29.582Z,48.10
2022-08-22T20:47:57.604Z,48.30
2022-08-22T20:50:26.174Z,48.40
2022-08-22T20:53:14.846Z,48.50
2022-08-22T20:55:53.155Z,48.70
2022-08-22T20:58:24.271Z,48.80
2022-08-22T21:00:55.526Z,49.00
2022-08-22T21:03:40.883Z,49.40
2022-08-22T21:06:15.914Z,49.90
2022-08-22T21:08:44.666Z,50.20
2022-08-22T21:11:39.955Z,50.30
2022-08-22T21:14:24.166Z,50.70
2022-08-22T21:16:51.398Z,51.00
2022-08-22T21:19:26.711Z,51.00
2022-08-22T21:21:53.722Z,51.40
2022-08-22T21:24:20.528Z,51.40
2022-08-22T21:27:00.550Z,51.40
2022-08-22T21:29:33.836Z,51.40
2022-08-22T21:32:24.642Z,51.30
2022-08-22T21:34:52.080Z,51.30
2022-08-22T21:37:23.414Z,51.10
2022-08-22T21:39:58.421Z,51.10
2022-08-22T21:42:38.745Z,51.20
2022-08-22T21:45:31.969Z,51.40
2022-08-22T21:47:59.639Z,51.40
2022-08-22T21:50:34.491Z,51.50
2022-08-22T21:53:11.873Z,51.80
2022-08-22T21:55:44.439Z,51.90
2022-08-22T21:58:36.972Z,52.10
2022-08-22T22:01:31.045Z,52.10
2022-08-22T22:03:59.338Z,52.00
2022-08-22T22:06:26.622Z,52.10
2022-08-22T22:08:53.325Z,52.20
2022-08-22T22:11:19.996Z,52.30
2022-08-22T22:13:46.824Z,52.30
2022-08-22T22:16:13.572Z,52.40
2022-08-22T22:18:40.573Z,52.60
2022-08-22T22:21:08.368Z,52.60
2022-08-22T22:23:35.230Z,52.50
2022-08-22T22:26:04.225Z,52.40
2022-08-22T22:28:35.413Z,52.60
2022-08-22T22:31:03.461Z,52.70
2022-08-22T22:33:33.650Z,52.80
2022-08-22T22:36:16.369Z,52.80
2022-08-22T22:38:43.219Z,52.90
2022-08-22T22:41:11.261Z,53.00
2022-08-22T22:43:37.895Z,53.10
2022-08-22T22:46:04.812Z,53.30
2022-08-22T22:48:32.082Z,53.30
2022-08-22T22:50:58.857Z,53.40
2022-08-22T22:53:38.178Z,53.50
2022-08-22T22:56:06.650Z,53.60
2022-08-22T22:58:35.598Z,53.70
2022-08-22T23:01:31.514Z,54.10
2022-08-22T23:04:05.416Z,54.40
2022-08-22T23:06:32.987Z,54.30
2022-08-22T23:08:59.688Z,54.30
2022-08-22T23:11:31.103Z,54.40
2022-08-22T23:13:58.215Z,54.60
2022-08-22T23:16:28.049Z,54.60
2022-08-22T23:18:55.494Z,54.50
2022-08-22T23:21:27.799Z,54.50
2022-08-22T23:23:56.734Z,54.40
2022-08-22T23:26:23.742Z,54.30
2022-08-22T23:28:50.611Z,54.20
2022-08-22T23:31:19.342Z,54.20
2022-08-22T23:33:46.502Z,54.40
2022-08-22T23:36:20.719Z,54.30
2022-08-22T23:38:48.624Z,54.30
2022-08-22T23:41:17.861Z,54.20
2022-08-22T23:43:47.297Z,54.30
2022-08-22T23:46:15.447Z,54.20
2022-08-22T23:48:42.528Z,54.20
2022-08-22T23:51:15.459Z,54.00
2022-08-22T23:53:44.265Z,53.90
2022-08-22T23:56:19.412Z,53.90
2022-08-22T23:58:48.273Z,53.90
